sensor_id;sensor_type;location;lat;lon;timestamp;pressure;altitude;pressure_sealevel;temperature
73937;BMP180;59249;59.736;30.568;2023-03-01T00:01:57;100733.00;;;-3.30
73937;BMP180;59249;59.736;30.568;2023-03-01T00:04:25;100754.00;;;-3.30
73937;BMP180;59249;59.736;30.568;2023-03-01T00:06:54;100745.00;;;-3.20
73937;BMP180;59249;59.736;30.568;2023-03-01T00:09:23;100756.00;;;-3.30
73937;BMP180;59249;59.736;30.568;2023-03-01T00:11:53;100759.00;;;-3.20
73937;BMP180;59249;59.736;30.568;2023-03-01T00:14:22;100760.00;;;-3.20
73937;BMP180;59249;59.736;30.568;2023-03-01T00:16:51;100747.00;;;-3.10
73937;BMP180;59249;59.736;30.568;2023-03-01T00:19:21;100757.00;;;-3.10
73937;BMP180;59249;59.736;30.568;2023-03-01T00:21:50;100768.00;;;-3.10
73937;BMP180;59249;59.736;30.568;2023-03-01T00:24:19;100755.00;;;-3.10
73937;BMP180;59249;59.736;30.568;2023-03-01T00:26:48;100779.00;;;-3.00
73937;BMP180;59249;59.736;30.568;2023-03-01T00:29:18;100759.00;;;-3.00
73937;BMP180;59249;59.736;30.568;2023-03-01T00:31:46;100786.00;;;-3.00
73937;BMP180;59249;59.736;30.568;2023-03-01T00:34:15;100761.00;;;-2.90
73937;BMP180;59249;59.736;30.568;2023-03-01T00:36:45;100801.00;;;-2.90
73937;BMP180;59249;59.736;30.568;2023-03-01T00:39:16;100763.00;;;-2.90
73937;BMP180;59249;59.736;30.568;2023-03-01T00:41:48;100769.00;;;-2.80
73937;BMP180;59249;59.736;30.568;2023-03-01T00:44:18;100762.00;;;-2.80
73937;BMP180;59249;59.736;30.568;2023-03-01T00:46:48;100768.00;;;-2.80
73937;BMP180;59249;59.736;30.568;2023-03-01T00:49:17;100755.00;;;-2.70
73937;BMP180;59249;59.736;30.568;2023-03-01T00:51:46;100738.00;;;-2.70
73937;BMP180;59249;59.736;30.568;2023-03-01T00:54:14;100736.00;;;-2.70
73937;BMP180;59249;59.736;30.568;2023-03-01T00:56:43;100743.00;;;-2.70
73937;BMP180;59249;59.736;30.568;2023-03-01T00:59:12;100771.00;;;-2.70
73937;BMP180;59249;59.736;30.568;2023-03-01T01:01:42;100779.00;;;-2.60
73937;BMP180;59249;59.736;30.568;2023-03-01T01:04:13;100775.00;;;-2.70
73937;BMP180;59249;59.736;30.568;2023-03-01T01:06:43;100772.00;;;-2.70
73937;BMP180;59249;59.736;30.568;2023-03-01T01:09:16;100759.00;;;-2.50
73937;BMP180;59249;59.736;30.568;2023-03-01T01:11:46;100776.00;;;-2.50
73937;BMP180;59249;59.736;30.568;2023-03-01T01:14:17;100755.00;;;-2.50
73937;BMP180;59249;59.736;30.568;2023-03-01T01:16:49;100783.00;;;-2.60
73937;BMP180;59249;59.736;30.568;2023-03-01T01:19:18;100782.00;;;-2.60
73937;BMP180;59249;59.736;30.568;2023-03-01T01:21:47;100772.00;;;-2.60
73937;BMP180;59249;59.736;30.568;2023-03-01T01:24:16;100774.00;;;-2.50
73937;BMP180;59249;59.736;30.568;2023-03-01T01:26:45;100769.00;;;-2.60
73937;BMP180;59249;59.736;30.568;2023-03-01T01:29:15;100753.00;;;-2.70
73937;BMP180;59249;59.736;30.568;2023-03-01T01:31:44;100783.00;;;-2.70
73937;BMP180;59249;59.736;30.568;2023-03-01T01:34:15;100792.00;;;-2.70
73937;BMP180;59249;59.736;30.568;2023-03-01T01:36:48;100774.00;;;-2.80
73937;BMP180;59249;59.736;30.568;2023-03-01T01:39:17;100788.00;;;-2.80
73937;BMP180;59249;59.736;30.568;2023-03-01T01:41:46;100772.00;;;-2.90
73937;BMP180;59249;59.736;30.568;2023-03-01T01:44:18;100777.00;;;-3.00
73937;BMP180;59249;59.736;30.568;2023-03-01T01:46:50;100768.00;;;-3.00
73937;BMP180;59249;59.736;30.568;2023-03-01T01:49:27;100792.00;;;-3.00
73937;BMP180;59249;59.736;30.568;2023-03-01T01:52:04;100771.00;;;-3.10
73937;BMP180;59249;59.736;30.568;2023-03-01T01:54:41;100776.00;;;-3.20
73937;BMP180;59249;59.736;30.568;2023-03-01T01:57:18;100774.00;;;-3.20
73937;BMP180;59249;59.736;30.568;2023-03-01T01:59:52;100771.00;;;-3.30
73937;BMP180;59249;59.736;30.568;2023-03-01T02:02:22;100800.00;;;-3.30
73937;BMP180;59249;59.736;30.568;2023-03-01T02:05:01;100768.00;;;-3.40
73937;BMP180;59249;59.736;30.568;2023-03-01T02:07:38;100779.00;;;-3.40
73937;BMP180;59249;59.736;30.568;2023-03-01T02:10:09;100775.00;;;-3.40
73937;BMP180;59249;59.736;30.568;2023-03-01T02:12:39;100774.00;;;-3.40
73937;BMP180;59249;59.736;30.568;2023-03-01T02:15:31;100767.00;;;-3.40
73937;BMP180;59249;59.736;30.568;2023-03-01T02:18:02;100762.00;;;-3.50
73937;BMP180;59249;59.736;30.568;2023-03-01T02:20:38;100767.00;;;-3.50
73937;BMP180;59249;59.736;30.568;2023-03-01T02:23:12;100799.00;;;-3.60
73937;BMP180;59249;59.736;30.568;2023-03-01T02:25:47;100788.00;;;-3.70
73937;BMP180;59249;59.736;30.568;2023-03-01T02:28:29;100786.00;;;-3.60
73937;BMP180;59249;59.736;30.568;2023-03-01T02:30:59;100811.00;;;-3.60
73937;BMP180;59249;59.736;30.568;2023-03-01T02:33:47;100796.00;;;-3.60
73937;BMP180;59249;59.736;30.568;2023-03-01T02:36:19;100798.00;;;-3.60
73937;BMP180;59249;59.736;30.568;2023-03-01T02:38:54;100792.00;;;-3.70
73937;BMP180;59249;59.736;30.568;2023-03-01T02:41:26;100787.00;;;-3.80
73937;BMP180;59249;59.736;30.568;2023-03-01T02:44:00;100788.00;;;-3.80
73937;BMP180;59249;59.736;30.568;2023-03-01T02:46:29;100793.00;;;-3.80
73937;BMP180;59249;59.736;30.568;2023-03-01T02:48:58;100783.00;;;-3.80
73937;BMP180;59249;59.736;30.568;2023-03-01T02:51:42;100791.00;;;-3.90
73937;BMP180;59249;59.736;30.568;2023-03-01T02:54:22;100787.00;;;-3.90
73937;BMP180;59249;59.736;30.568;2023-03-01T02:56:57;100795.00;;;-3.90
73937;BMP180;59249;59.736;30.568;2023-03-01T02:59:31;100789.00;;;-3.90
73937;BMP180;59249;59.736;30.568;2023-03-01T03:02:07;100792.00;;;-3.90
73937;BMP180;59249;59.736;30.568;2023-03-01T03:04:35;100787.00;;;-4.00
73937;BMP180;59249;59.736;30.568;2023-03-01T03:07:04;100785.00;;;-4.00
73937;BMP180;59249;59.736;30.568;2023-03-01T03:09:33;100790.00;;;-4.00
73937;BMP180;59249;59.736;30.568;2023-03-01T03:12:02;100787.00;;;-4.00
73937;BMP180;59249;59.736;30.568;2023-03-01T03:14:32;100778.00;;;-4.10
73937;BMP180;59249;59.736;30.568;2023-03-01T03:17:02;100785.00;;;-4.10
73937;BMP180;59249;59.736;30.568;2023-03-01T03:19:33;100780.00;;;-4.00
73937;BMP180;59249;59.736;30.568;2023-03-01T03:22:02;100795.00;;;-4.10
73937;BMP180;59249;59.736;30.568;2023-03-01T03:24:30;100798.00;;;-4.20
73937;BMP180;59249;59.736;30.568;2023-03-01T03:27:05;100785.00;;;-4.20
73937;BMP180;59249;59.736;30.568;2023-03-01T03:29:36;100794.00;;;-4.20
73937;BMP180;59249;59.736;30.568;2023-03-01T03:32:04;100797.00;;;-4.20
73937;BMP180;59249;59.736;30.568;2023-03-01T03:34:34;100782.00;;;-4.20
73937;BMP180;59249;59.736;30.568;2023-03-01T03:37:02;100795.00;;;-4.20
73937;BMP180;59249;59.736;30.568;2023-03-01T03:39:51;100796.00;;;-4.20
73937;BMP180;59249;59.736;30.568;2023-03-01T03:42:21;100803.00;;;-4.20
73937;BMP180;59249;59.736;30.568;2023-03-01T03:44:51;100818.00;;;-4.30
73937;BMP180;59249;59.736;30.568;2023-03-01T03:47:20;100804.00;;;-4.30
73937;BMP180;59249;59.736;30.568;2023-03-01T03:49:49;100811.00;;;-4.30
73937;BMP180;59249;59.736;30.568;2023-03-01T03:52:17;100814.00;;;-4.40
73937;BMP180;59249;59.736;30.568;2023-03-01T03:54:46;100811.00;;;-4.40
73937;BMP180;59249;59.736;30.568;2023-03-01T03:57:15;100799.00;;;-4.40
73937;BMP180;59249;59.736;30.568;2023-03-01T03:59:43;100806.00;;;-4.40
73937;BMP180;59249;59.736;30.568;2023-03-01T04:02:13;100806.00;;;-4.40
73937;BMP180;59249;59.736;30.568;2023-03-01T04:04:49;100812.00;;;-4.40
73937;BMP180;59249;59.736;30.568;2023-03-01T04:07:18;100813.00;;;-4.40
73937;BMP180;59249;59.736;30.568;2023-03-01T04:09:46;100811.00;;;-4.40
73937;BMP180;59249;59.736;30.568;2023-03-01T04:12:15;100820.00;;;-4.40
73937;BMP180;59249;59.736;30.568;2023-03-01T04:14:49;100812.00;;;-4.50
73937;BMP180;59249;59.736;30.568;2023-03-01T04:17:19;100818.00;;;-4.50
73937;BMP180;59249;59.736;30.568;2023-03-01T04:19:48;100820.00;;;-4.50
73937;BMP180;59249;59.736;30.568;2023-03-01T04:22:17;100811.00;;;-4.50
73937;BMP180;59249;59.736;30.568;2023-03-01T04:24:46;100820.00;;;-4.50
73937;BMP180;59249;59.736;30.568;2023-03-01T04:27:15;100814.00;;;-4.60
73937;BMP180;59249;59.736;30.568;2023-03-01T04:29:44;100811.00;;;-4.50
73937;BMP180;59249;59.736;30.568;2023-03-01T04:32:13;100816.00;;;-4.50
73937;BMP180;59249;59.736;30.568;2023-03-01T04:34:44;100816.00;;;-4.50
73937;BMP180;59249;59.736;30.568;2023-03-01T04:37:13;100811.00;;;-4.50
73937;BMP180;59249;59.736;30.568;2023-03-01T04:39:44;100808.00;;;-4.50
73937;BMP180;59249;59.736;30.568;2023-03-01T04:42:14;100805.00;;;-4.50
73937;BMP180;59249;59.736;30.568;2023-03-01T04:44:43;100816.00;;;-4.60
73937;BMP180;59249;59.736;30.568;2023-03-01T04:47:12;100809.00;;;-4.50
73937;BMP180;59249;59.736;30.568;2023-03-01T04:49:41;100824.00;;;-4.50
73937;BMP180;59249;59.736;30.568;2023-03-01T04:52:11;100814.00;;;-4.50
73937;BMP180;59249;59.736;30.568;2023-03-01T04:54:39;100811.00;;;-4.50
73937;BMP180;59249;59.736;30.568;2023-03-01T04:57:08;100825.00;;;-4.50
73937;BMP180;59249;59.736;30.568;2023-03-01T04:59:37;100822.00;;;-4.40
73937;BMP180;59249;59.736;30.568;2023-03-01T05:02:05;100830.00;;;-4.40
73937;BMP180;59249;59.736;30.568;2023-03-01T05:04:37;100839.00;;;-4.50
73937;BMP180;59249;59.736;30.568;2023-03-01T05:07:06;100844.00;;;-4.50
73937;BMP180;59249;59.736;30.568;2023-03-01T05:09:36;100844.00;;;-4.50
73937;BMP180;59249;59.736;30.568;2023-03-01T05:12:05;100851.00;;;-4.40
73937;BMP180;59249;59.736;30.568;2023-03-01T05:14:34;100846.00;;;-4.50
73937;BMP180;59249;59.736;30.568;2023-03-01T05:17:03;100853.00;;;-4.40
73937;BMP180;59249;59.736;30.568;2023-03-01T05:19:32;100857.00;;;-4.40
73937;BMP180;59249;59.736;30.568;2023-03-01T05:22:00;100869.00;;;-4.40
73937;BMP180;59249;59.736;30.568;2023-03-01T05:24:32;100870.00;;;-4.50
73937;BMP180;59249;59.736;30.568;2023-03-01T05:27:06;100881.00;;;-4.50
73937;BMP180;59249;59.736;30.568;2023-03-01T05:29:37;100870.00;;;-4.50
73937;BMP180;59249;59.736;30.568;2023-03-01T05:32:07;100868.00;;;-4.40
73937;BMP180;59249;59.736;30.568;2023-03-01T05:34:42;100871.00;;;-4.30
73937;BMP180;59249;59.736;30.568;2023-03-01T05:37:13;100868.00;;;-4.20
73937;BMP180;59249;59.736;30.568;2023-03-01T05:39:42;100869.00;;;-4.20
73937;BMP180;59249;59.736;30.568;2023-03-01T05:42:13;100856.00;;;-4.10
73937;BMP180;59249;59.736;30.568;2023-03-01T05:44:42;100858.00;;;-4.10
73937;BMP180;59249;59.736;30.568;2023-03-01T05:47:11;100859.00;;;-4.10
73937;BMP180;59249;59.736;30.568;2023-03-01T05:49:40;100862.00;;;-4.10
73937;BMP180;59249;59.736;30.568;2023-03-01T05:52:10;100852.00;;;-4.00
73937;BMP180;59249;59.736;30.568;2023-03-01T05:54:40;100869.00;;;-3.90
73937;BMP180;59249;59.736;30.568;2023-03-01T05:57:09;100852.00;;;-3.90
73937;BMP180;59249;59.736;30.568;2023-03-01T05:59:40;100849.00;;;-3.80
73937;BMP180;59249;59.736;30.568;2023-03-01T06:02:09;100865.00;;;-3.80
73937;BMP180;59249;59.736;30.568;2023-03-01T06:04:38;100874.00;;;-3.80
73937;BMP180;59249;59.736;30.568;2023-03-01T06:07:10;100872.00;;;-3.80
73937;BMP180;59249;59.736;30.568;2023-03-01T06:09:41;100875.00;;;-3.70
73937;BMP180;59249;59.736;30.568;2023-03-01T06:12:12;100875.00;;;-3.70
73937;BMP180;59249;59.736;30.568;2023-03-01T06:14:45;100866.00;;;-3.70
73937;BMP180;59249;59.736;30.568;2023-03-01T06:17:15;100867.00;;;-3.70
73937;BMP180;59249;59.736;30.568;2023-03-01T06:19:44;100872.00;;;-3.60
73937;BMP180;59249;59.736;30.568;2023-03-01T06:22:14;100861.00;;;-3.60
73937;BMP180;59249;59.736;30.568;2023-03-01T06:24:43;100879.00;;;-3.50
73937;BMP180;59249;59.736;30.568;2023-03-01T06:27:12;100868.00;;;-3.50
73937;BMP180;59249;59.736;30.568;2023-03-01T06:29:43;100868.00;;;-3.40
73937;BMP180;59249;59.736;30.568;2023-03-01T06:32:16;100874.00;;;-3.40
73937;BMP180;59249;59.736;30.568;2023-03-01T06:34:45;100866.00;;;-3.40
73937;BMP180;59249;59.736;30.568;2023-03-01T06:37:17;100871.00;;;-3.40
73937;BMP180;59249;59.736;30.568;2023-03-01T06:39:46;100852.00;;;-3.40
73937;BMP180;59249;59.736;30.568;2023-03-01T06:42:17;100866.00;;;-3.30
73937;BMP180;59249;59.736;30.568;2023-03-01T06:44:47;100853.00;;;-3.20
73937;BMP180;59249;59.736;30.568;2023-03-01T06:47:16;100875.00;;;-3.20
73937;BMP180;59249;59.736;30.568;2023-03-01T06:49:45;100866.00;;;-3.20
73937;BMP180;59249;59.736;30.568;2023-03-01T06:52:14;100872.00;;;-3.20
73937;BMP180;59249;59.736;30.568;2023-03-01T06:54:43;100871.00;;;-3.20
73937;BMP180;59249;59.736;30.568;2023-03-01T06:57:12;100869.00;;;-3.20
73937;BMP180;59249;59.736;30.568;2023-03-01T06:59:40;100849.00;;;-3.00
73937;BMP180;59249;59.736;30.568;2023-03-01T07:02:11;100859.00;;;-3.10
73937;BMP180;59249;59.736;30.568;2023-03-01T07:04:40;100861.00;;;-3.00
73937;BMP180;59249;59.736;30.568;2023-03-01T07:07:10;100864.00;;;-3.00
73937;BMP180;59249;59.736;30.568;2023-03-01T07:09:39;100874.00;;;-3.00
73937;BMP180;59249;59.736;30.568;2023-03-01T07:12:08;100855.00;;;-2.90
73937;BMP180;59249;59.736;30.568;2023-03-01T07:14:36;100871.00;;;-2.90
73937;BMP180;59249;59.736;30.568;2023-03-01T07:17:06;100867.00;;;-2.80
73937;BMP180;59249;59.736;30.568;2023-03-01T07:19:36;100872.00;;;-2.80
73937;BMP180;59249;59.736;30.568;2023-03-01T07:22:04;100872.00;;;-2.80
73937;BMP180;59249;59.736;30.568;2023-03-01T07:24:35;100863.00;;;-2.80
73937;BMP180;59249;59.736;30.568;2023-03-01T07:27:07;100866.00;;;-2.70
73937;BMP180;59249;59.736;30.568;2023-03-01T07:29:36;100869.00;;;-2.70
73937;BMP180;59249;59.736;30.568;2023-03-01T07:32:05;100861.00;;;-2.60
73937;BMP180;59249;59.736;30.568;2023-03-01T07:34:36;100873.00;;;-2.60
73937;BMP180;59249;59.736;30.568;2023-03-01T07:37:05;100882.00;;;-2.50
73937;BMP180;59249;59.736;30.568;2023-03-01T07:39:33;100866.00;;;-2.50
73937;BMP180;59249;59.736;30.568;2023-03-01T07:42:02;100885.00;;;-2.50
73937;BMP180;59249;59.736;30.568;2023-03-01T07:44:32;100892.00;;;-2.40
73937;BMP180;59249;59.736;30.568;2023-03-01T07:47:02;100861.00;;;-2.40
73937;BMP180;59249;59.736;30.568;2023-03-01T07:49:31;100882.00;;;-2.40
73937;BMP180;59249;59.736;30.568;2023-03-01T07:52:01;100850.00;;;-2.40
73937;BMP180;59249;59.736;30.568;2023-03-01T07:54:30;100848.00;;;-2.30
73937;BMP180;59249;59.736;30.568;2023-03-01T07:56:58;100852.00;;;-2.30
73937;BMP180;59249;59.736;30.568;2023-03-01T07:59:27;100861.00;;;-2.20
73937;BMP180;59249;59.736;30.568;2023-03-01T08:01:57;100850.00;;;-2.20
73937;BMP180;59249;59.736;30.568;2023-03-01T08:04:26;100870.00;;;-2.30
73937;BMP180;59249;59.736;30.568;2023-03-01T08:07:18;100858.00;;;-2.20
73937;BMP180;59249;59.736;30.568;2023-03-01T08:09:54;100848.00;;;-2.20
73937;BMP180;59249;59.736;30.568;2023-03-01T08:12:25;100857.00;;;-2.10
73937;BMP180;59249;59.736;30.568;2023-03-01T08:14:57;100854.00;;;-2.10
73937;BMP180;59249;59.736;30.568;2023-03-01T08:17:26;100859.00;;;-2.10
73937;BMP180;59249;59.736;30.568;2023-03-01T08:19:56;100849.00;;;-2.10
73937;BMP180;59249;59.736;30.568;2023-03-01T08:22:27;100843.00;;;-2.00
73937;BMP180;59249;59.736;30.568;2023-03-01T08:24:55;100828.00;;;-2.00
73937;BMP180;59249;59.736;30.568;2023-03-01T08:27:24;100828.00;;;-2.00
73937;BMP180;59249;59.736;30.568;2023-03-01T08:29:56;100831.00;;;-1.90
73937;BMP180;59249;59.736;30.568;2023-03-01T08:32:25;100830.00;;;-1.90
73937;BMP180;59249;59.736;30.568;2023-03-01T08:34:54;100823.00;;;-1.90
73937;BMP180;59249;59.736;30.568;2023-03-01T08:37:26;100818.00;;;-1.80
73937;BMP180;59249;59.736;30.568;2023-03-01T08:39:57;100821.00;;;-1.70
73937;BMP180;59249;59.736;30.568;2023-03-01T08:42:27;100810.00;;;-1.60
73937;BMP180;59249;59.736;30.568;2023-03-01T08:44:56;100814.00;;;-1.60
73937;BMP180;59249;59.736;30.568;2023-03-01T08:47:30;100832.00;;;-1.40
73937;BMP180;59249;59.736;30.568;2023-03-01T08:50:01;100822.00;;;-1.40
73937;BMP180;59249;59.736;30.568;2023-03-01T08:52:37;100802.00;;;-1.30
73937;BMP180;59249;59.736;30.568;2023-03-01T08:55:07;100847.00;;;-1.30
73937;BMP180;59249;59.736;30.568;2023-03-01T08:57:38;100825.00;;;-1.40
73937;BMP180;59249;59.736;30.568;2023-03-01T09:00:08;100812.00;;;-1.30
73937;BMP180;59249;59.736;30.568;2023-03-01T09:02:38;100824.00;;;-1.30
73937;BMP180;59249;59.736;30.568;2023-03-01T09:05:08;100828.00;;;-1.40
73937;BMP180;59249;59.736;30.568;2023-03-01T09:07:38;100811.00;;;-1.50
73937;BMP180;59249;59.736;30.568;2023-03-01T09:10:09;100825.00;;;-1.50
73937;BMP180;59249;59.736;30.568;2023-03-01T09:12:38;100819.00;;;-1.40
73937;BMP180;59249;59.736;30.568;2023-03-01T09:15:10;100824.00;;;-1.40
73937;BMP180;59249;59.736;30.568;2023-03-01T09:17:39;100838.00;;;-1.30
73937;BMP180;59249;59.736;30.568;2023-03-01T09:20:13;100833.00;;;-1.20
73937;BMP180;59249;59.736;30.568;2023-03-01T09:22:45;100821.00;;;-1.10
73937;BMP180;59249;59.736;30.568;2023-03-01T09:25:14;100807.00;;;-0.90
73937;BMP180;59249;59.736;30.568;2023-03-01T09:27:43;100826.00;;;-0.80
73937;BMP180;59249;59.736;30.568;2023-03-01T09:30:13;100768.00;;;-0.80
73937;BMP180;59249;59.736;30.568;2023-03-01T09:32:42;100821.00;;;-0.70
73937;BMP180;59249;59.736;30.568;2023-03-01T09:35:12;100797.00;;;-0.70
73937;BMP180;59249;59.736;30.568;2023-03-01T09:37:42;100808.00;;;-0.70
73937;BMP180;59249;59.736;30.568;2023-03-01T09:40:15;100811.00;;;-0.60
73937;BMP180;59249;59.736;30.568;2023-03-01T09:42:52;100803.00;;;-0.60
73937;BMP180;59249;59.736;30.568;2023-03-01T09:45:27;100812.00;;;-0.40
73937;BMP180;59249;59.736;30.568;2023-03-01T09:48:02;100804.00;;;-0.40
73937;BMP180;59249;59.736;30.568;2023-03-01T09:50:35;100792.00;;;-0.30
73937;BMP180;59249;59.736;30.568;2023-03-01T09:53:14;100797.00;;;-0.30
73937;BMP180;59249;59.736;30.568;2023-03-01T09:55:49;100783.00;;;-0.30
73937;BMP180;59249;59.736;30.568;2023-03-01T09:58:46;100792.00;;;-0.30
73937;BMP180;59249;59.736;30.568;2023-03-01T10:01:30;100773.00;;;-0.30
73937;BMP180;59249;59.736;30.568;2023-03-01T10:04:20;100784.00;;;-0.30
73937;BMP180;59249;59.736;30.568;2023-03-01T10:07:07;100808.00;;;-0.20
73937;BMP180;59249;59.736;30.568;2023-03-01T10:09:58;100800.00;;;-0.10
73937;BMP180;59249;59.736;30.568;2023-03-01T10:12:35;100797.00;;;-0.20
73937;BMP180;59249;59.736;30.568;2023-03-01T10:15:12;100799.00;;;-0.20
73937;BMP180;59249;59.736;30.568;2023-03-01T10:17:51;100795.00;;;-0.10
73937;BMP180;59249;59.736;30.568;2023-03-01T10:20:26;100788.00;;;-0.10
73937;BMP180;59249;59.736;30.568;2023-03-01T10:23:01;100795.00;;;-0.10
73937;BMP180;59249;59.736;30.568;2023-03-01T10:25:44;100782.00;;;-0.10
73937;BMP180;59249;59.736;30.568;2023-03-01T10:28:27;100770.00;;;0.10
73937;BMP180;59249;59.736;30.568;2023-03-01T10:30:59;100777.00;;;0.10
73937;BMP180;59249;59.736;30.568;2023-03-01T10:33:31;100764.00;;;0.10
73937;BMP180;59249;59.736;30.568;2023-03-01T10:36:03;100761.00;;;0.10
73937;BMP180;59249;59.736;30.568;2023-03-01T10:38:50;100740.00;;;0.20
73937;BMP180;59249;59.736;30.568;2023-03-01T10:41:25;100762.00;;;0.30
73937;BMP180;59249;59.736;30.568;2023-03-01T10:43:57;100778.00;;;0.40
73937;BMP180;59249;59.736;30.568;2023-03-01T10:46:32;100752.00;;;0.50
73937;BMP180;59249;59.736;30.568;2023-03-01T10:49:14;100744.00;;;0.60
73937;BMP180;59249;59.736;30.568;2023-03-01T10:51:46;100738.00;;;0.50
73937;BMP180;59249;59.736;30.568;2023-03-01T10:54:18;100740.00;;;0.50
73937;BMP180;59249;59.736;30.568;2023-03-01T10:56:53;100738.00;;;0.50
73937;BMP180;59249;59.736;30.568;2023-03-01T10:59:27;100726.00;;;0.50
73937;BMP180;59249;59.736;30.568;2023-03-01T11:02:04;100707.00;;;0.50
73937;BMP180;59249;59.736;30.568;2023-03-01T11:04:58;100717.00;;;0.70
73937;BMP180;59249;59.736;30.568;2023-03-01T11:07:30;100729.00;;;0.70
73937;BMP180;59249;59.736;30.568;2023-03-01T11:10:17;100717.00;;;0.80
73937;BMP180;59249;59.736;30.568;2023-03-01T11:12:50;100726.00;;;0.90
73937;BMP180;59249;59.736;30.568;2023-03-01T11:15:27;100704.00;;;0.80
73937;BMP180;59249;59.736;30.568;2023-03-01T11:17:57;100727.00;;;0.80
73937;BMP180;59249;59.736;30.568;2023-03-01T11:20:39;100711.00;;;0.90
73937;BMP180;59249;59.736;30.568;2023-03-01T11:23:11;100706.00;;;0.80
73937;BMP180;59249;59.736;30.568;2023-03-01T11:25:43;100702.00;;;0.80
73937;BMP180;59249;59.736;30.568;2023-03-01T11:28:17;100689.00;;;0.80
73937;BMP180;59249;59.736;30.568;2023-03-01T11:30:53;100700.00;;;0.80
73937;BMP180;59249;59.736;30.568;2023-03-01T11:33:39;100703.00;;;0.80
73937;BMP180;59249;59.736;30.568;2023-03-01T11:36:18;100690.00;;;0.80
73937;BMP180;59249;59.736;30.568;2023-03-01T11:38:53;100682.00;;;0.90
73937;BMP180;59249;59.736;30.568;2023-03-01T11:41:25;100677.00;;;0.90
73937;BMP180;59249;59.736;30.568;2023-03-01T11:44:02;100659.00;;;0.90
73937;BMP180;59249;59.736;30.568;2023-03-01T11:49:53;100674.00;;;1.00
73937;BMP180;59249;59.736;30.568;2023-03-01T11:52:43;100668.00;;;1.00
73937;BMP180;59249;59.736;30.568;2023-03-01T11:55:41;100655.00;;;1.10
73937;BMP180;59249;59.736;30.568;2023-03-01T11:58:29;100640.00;;;1.00
73937;BMP180;59249;59.736;30.568;2023-03-01T12:01:21;100646.00;;;1.00
73937;BMP180;59249;59.736;30.568;2023-03-01T12:07:14;100654.00;;;1.00
73937;BMP180;59249;59.736;30.568;2023-03-01T12:10:01;100629.00;;;1.00
73937;BMP180;59249;59.736;30.568;2023-03-01T12:13:05;100649.00;;;0.90
73937;BMP180;59249;59.736;30.568;2023-03-01T12:15:56;100638.00;;;0.90
73937;BMP180;59249;59.736;30.568;2023-03-01T12:19:06;100630.00;;;0.80
73937;BMP180;59249;59.736;30.568;2023-03-01T12:21:50;100640.00;;;0.80
73937;BMP180;59249;59.736;30.568;2023-03-01T12:24:56;100635.00;;;0.60
73937;BMP180;59249;59.736;30.568;2023-03-01T12:28:08;100629.00;;;0.60
73937;BMP180;59249;59.736;30.568;2023-03-01T12:38:07;100594.00;;;0.50
73937;BMP180;59249;59.736;30.568;2023-03-01T12:41:07;100608.00;;;0.50
73937;BMP180;59249;59.736;30.568;2023-03-01T12:44:04;100599.00;;;0.40
73937;BMP180;59249;59.736;30.568;2023-03-01T12:46:49;100582.00;;;0.40
73937;BMP180;59249;59.736;30.568;2023-03-01T12:49:33;100588.00;;;0.30
73937;BMP180;59249;59.736;30.568;2023-03-01T12:52:11;100580.00;;;0.30
73937;BMP180;59249;59.736;30.568;2023-03-01T12:54:45;100571.00;;;0.10
73937;BMP180;59249;59.736;30.568;2023-03-01T12:57:18;100565.00;;;0.20
73937;BMP180;59249;59.736;30.568;2023-03-01T13:00:05;100569.00;;;0.10
73937;BMP180;59249;59.736;30.568;2023-03-01T13:02:52;100588.00;;;0.00
73937;BMP180;59249;59.736;30.568;2023-03-01T13:05:36;100580.00;;;0.10
73937;BMP180;59249;59.736;30.568;2023-03-01T13:08:16;100589.00;;;0.10
73937;BMP180;59249;59.736;30.568;2023-03-01T13:10:53;100561.00;;;0.20
73937;BMP180;59249;59.736;30.568;2023-03-01T13:13:28;100571.00;;;0.00
73937;BMP180;59249;59.736;30.568;2023-03-01T13:15:57;100591.00;;;0.00
73937;BMP180;59249;59.736;30.568;2023-03-01T13:19:10;100572.00;;;0.00
73937;BMP180;59249;59.736;30.568;2023-03-01T13:21:45;100589.00;;;0.00
73937;BMP180;59249;59.736;30.568;2023-03-01T13:24:26;100587.00;;;0.00
73937;BMP180;59249;59.736;30.568;2023-03-01T13:27:11;100586.00;;;0.00
73937;BMP180;59249;59.736;30.568;2023-03-01T13:29:57;100586.00;;;-0.10
73937;BMP180;59249;59.736;30.568;2023-03-01T13:32:32;100615.00;;;-0.10
73937;BMP180;59249;59.736;30.568;2023-03-01T13:35:40;100521.00;;;-0.10
73937;BMP180;59249;59.736;30.568;2023-03-01T13:38:44;100583.00;;;-0.10
73937;BMP180;59249;59.736;30.568;2023-03-01T13:41:16;100520.00;;;0.00
73937;BMP180;59249;59.736;30.568;2023-03-01T13:43:46;100537.00;;;0.00
73937;BMP180;59249;59.736;30.568;2023-03-01T13:46:18;100606.00;;;-0.10
73937;BMP180;59249;59.736;30.568;2023-03-01T13:48:51;100603.00;;;-0.10
73937;BMP180;59249;59.736;30.568;2023-03-01T13:51:24;100628.00;;;-0.20
73937;BMP180;59249;59.736;30.568;2023-03-01T13:54:00;100617.00;;;-0.10
73937;BMP180;59249;59.736;30.568;2023-03-01T13:56:35;100647.00;;;-0.30
73937;BMP180;59249;59.736;30.568;2023-03-01T13:59:06;100616.00;;;-0.10
73937;BMP180;59249;59.736;30.568;2023-03-01T14:01:41;100608.00;;;-0.30
73937;BMP180;59249;59.736;30.568;2023-03-01T14:04:20;100595.00;;;-0.20
73937;BMP180;59249;59.736;30.568;2023-03-01T14:06:51;100589.00;;;-0.20
73937;BMP180;59249;59.736;30.568;2023-03-01T14:09:41;100591.00;;;-0.30
73937;BMP180;59249;59.736;30.568;2023-03-01T14:12:24;100602.00;;;-0.20
73937;BMP180;59249;59.736;30.568;2023-03-01T14:15:04;100576.00;;;-0.40
73937;BMP180;59249;59.736;30.568;2023-03-01T14:17:49;100607.00;;;-0.40
73937;BMP180;59249;59.736;30.568;2023-03-01T14:20:25;100597.00;;;-0.40
73937;BMP180;59249;59.736;30.568;2023-03-01T14:22:57;100572.00;;;-0.50
73937;BMP180;59249;59.736;30.568;2023-03-01T14:25:32;100564.00;;;-0.40
73937;BMP180;59249;59.736;30.568;2023-03-01T14:28:11;100575.00;;;-0.40
73937;BMP180;59249;59.736;30.568;2023-03-01T14:30:45;100557.00;;;-0.40
73937;BMP180;59249;59.736;30.568;2023-03-01T14:33:21;100558.00;;;-0.40
73937;BMP180;59249;59.736;30.568;2023-03-01T14:35:55;100551.00;;;-0.40
73937;BMP180;59249;59.736;30.568;2023-03-01T14:38:32;100565.00;;;-0.40